sensor_id;sensor_type;location;lat;lon;timestamp;temperature;humidity
3690;DHT22;1861;50.240;8.596;2022-12-29T00:02:24;10.10;99.90
3690;DHT22;1861;50.240;8.596;2022-12-29T00:04:54;10.10;99.90
3690;DHT22;1861;50.240;8.596;2022-12-29T00:07:23;10.10;99.90
3690;DHT22;1861;50.240;8.596;2022-12-29T00:09:51;10.10;99.90
3690;DHT22;1861;50.240;8.596;2022-12-29T00:12:19;10.10;99.90
3690;DHT22;1861;50.240;8.596;2022-12-29T00:14:47;10.10;99.90
3690;DHT22;1861;50.240;8.596;2022-12-29T00:17:33;10.20;99.90
3690;DHT22;1861;50.240;8.596;2022-12-29T00:20:03;10.20;99.90
3690;DHT22;1861;50.240;8.596;2022-12-29T00:22:45;10.20;99.90
3690;DHT22;1861;50.240;8.596;2022-12-29T00:25:27;10.20;99.90
3690;DHT22;1861;50.240;8.596;2022-12-29T00:28:13;10.20;99.90
3690;DHT22;1861;50.240;8.596;2022-12-29T00:30:59;10.30;99.90
3690;DHT22;1861;50.240;8.596;2022-12-29T00:33:45;10.30;99.90
3690;DHT22;1861;50.240;8.596;2022-12-29T00:36:35;10.30;99.90
3690;DHT22;1861;50.240;8.596;2022-12-29T00:39:08;10.30;99.90
3690;DHT22;1861;50.240;8.596;2022-12-29T00:41:55;10.40;99.90
3690;DHT22;1861;50.240;8.596;2022-12-29T00:44:41;10.40;99.90
3690;DHT22;1861;50.240;8.596;2022-12-29T00:47:09;10.40;99.90
3690;DHT22;1861;50.240;8.596;2022-12-29T00:49:38;10.40;99.90
3690;DHT22;1861;50.240;8.596;2022-12-29T00:52:08;10.50;99.90
3690;DHT22;1861;50.240;8.596;2022-12-29T00:54:37;10.50;99.90
3690;DHT22;1861;50.240;8.596;2022-12-29T00:57:08;10.50;99.90
3690;DHT22;1861;50.240;8.596;2022-12-29T00:59:37;10.60;99.90
3690;DHT22;1861;50.240;8.596;2022-12-29T01:02:06;10.60;99.90
3690;DHT22;1861;50.240;8.596;2022-12-29T01:04:35;10.60;99.90
3690;DHT22;1861;50.240;8.596;2022-12-29T01:07:03;10.60;99.90
3690;DHT22;1861;50.240;8.596;2022-12-29T01:09:33;10.60;99.90
3690;DHT22;1861;50.240;8.596;2022-12-29T01:12:18;10.60;99.90
3690;DHT22;1861;50.240;8.596;2022-12-29T01:15:10;10.70;99.90
3690;DHT22;1861;50.240;8.596;2022-12-29T01:17:39;10.60;99.90
3690;DHT22;1861;50.240;8.596;2022-12-29T01:20:08;10.60;99.90
3690;DHT22;1861;50.240;8.596;2022-12-29T01:22:37;10.60;99.90
3690;DHT22;1861;50.240;8.596;2022-12-29T01:25:08;10.60;99.90
3690;DHT22;1861;50.240;8.596;2022-12-29T01:27:37;10.60;99.90
3690;DHT22;1861;50.240;8.596;2022-12-29T01:30:06;10.60;99.90
3690;DHT22;1861;50.240;8.596;2022-12-29T01:32:34;10.60;99.90
3690;DHT22;1861;50.240;8.596;2022-12-29T01:35:04;10.70;99.90
3690;DHT22;1861;50.240;8.596;2022-12-29T01:37:34;10.60;99.90
3690;DHT22;1861;50.240;8.596;2022-12-29T01:40:02;10.70;99.90
3690;DHT22;1861;50.240;8.596;2022-12-29T01:42:33;10.70;99.90
3690;DHT22;1861;50.240;8.596;2022-12-29T01:45:02;10.70;99.90
3690;DHT22;1861;50.240;8.596;2022-12-29T01:47:33;10.70;99.90
3690;DHT22;1861;50.240;8.596;2022-12-29T01:50:05;10.70;99.90
3690;DHT22;1861;50.240;8.596;2022-12-29T01:52:38;10.80;99.90
3690;DHT22;1861;50.240;8.596;2022-12-29T01:55:09;10.80;99.90
3690;DHT22;1861;50.240;8.596;2022-12-29T01:57:45;10.70;99.90
3690;DHT22;1861;50.240;8.596;2022-12-29T02:00:14;10.80;99.90
3690;DHT22;1861;50.240;8.596;2022-12-29T02:02:49;10.80;99.90
3690;DHT22;1861;50.240;8.596;2022-12-29T02:05:24;10.70;99.90
3690;DHT22;1861;50.240;8.596;2022-12-29T02:07:53;10.80;99.90
3690;DHT22;1861;50.240;8.596;2022-12-29T02:10:24;10.70;99.90
3690;DHT22;1861;50.240;8.596;2022-12-29T02:12:55;10.70;99.90
3690;DHT22;1861;50.240;8.596;2022-12-29T02:15:31;10.80;99.90
3690;DHT22;1861;50.240;8.596;2022-12-29T02:18:14;10.70;99.90
3690;DHT22;1861;50.240;8.596;2022-12-29T02:21:15;10.70;99.90
3690;DHT22;1861;50.240;8.596;2022-12-29T02:24:05;10.70;99.90
3690;DHT22;1861;50.240;8.596;2022-12-29T02:26:56;10.70;99.90
3690;DHT22;1861;50.240;8.596;2022-12-29T02:30:02;10.70;99.90
3690;DHT22;1861;50.240;8.596;2022-12-29T02:32:38;10.60;99.90
3690;DHT22;1861;50.240;8.596;2022-12-29T02:35:14;10.60;99.90
3690;DHT22;1861;50.240;8.596;2022-12-29T02:37:55;10.70;99.90
3690;DHT22;1861;50.240;8.596;2022-12-29T02:40:31;10.60;99.90
3690;DHT22;1861;50.240;8.596;2022-12-29T02:43:09;10.70;99.90
3690;DHT22;1861;50.240;8.596;2022-12-29T02:45:45;10.70;99.90
3690;DHT22;1861;50.240;8.596;2022-12-29T02:48:22;10.70;99.90
3690;DHT22;1861;50.240;8.596;2022-12-29T02:50:57;10.60;99.90
3690;DHT22;1861;50.240;8.596;2022-12-29T02:53:27;10.60;99.90
3690;DHT22;1861;50.240;8.596;2022-12-29T02:56:13;10.70;99.90
3690;DHT22;1861;50.240;8.596;2022-12-29T02:58:42;10.70;99.90
3690;DHT22;1861;50.240;8.596;2022-12-29T03:01:21;10.70;99.90
3690;DHT22;1861;50.240;8.596;2022-12-29T03:04:09;10.70;99.90
3690;DHT22;1861;50.240;8.596;2022-12-29T03:06:51;10.70;99.90
3690;DHT22;1861;50.240;8.596;2022-12-29T03:09:29;10.70;99.90
3690;DHT22;1861;50.240;8.596;2022-12-29T03:12:11;10.70;99.90
3690;DHT22;1861;50.240;8.596;2022-12-29T03:14:55;10.70;99.90
3690;DHT22;1861;50.240;8.596;2022-12-29T03:17:53;10.70;99.90
3690;DHT22;1861;50.240;8.596;2022-12-29T03:20:28;10.70;99.90
3690;DHT22;1861;50.240;8.596;2022-12-29T03:23:01;10.70;99.90
3690;DHT22;1861;50.240;8.596;2022-12-29T03:25:37;10.60;99.90
3690;DHT22;1861;50.240;8.596;2022-12-29T03:28:12;10.60;99.90
3690;DHT22;1861;50.240;8.596;2022-12-29T03:30:45;10.60;99.90
3690;DHT22;1861;50.240;8.596;2022-12-29T03:33:18;10.60;99.90
3690;DHT22;1861;50.240;8.596;2022-12-29T03:35:51;10.60;99.90
3690;DHT22;1861;50.240;8.596;2022-12-29T03:38:25;10.60;99.90
3690;DHT22;1861;50.240;8.596;2022-12-29T03:40:57;10.60;99.90
3690;DHT22;1861;50.240;8.596;2022-12-29T03:43:28;10.60;99.90
3690;DHT22;1861;50.240;8.596;2022-12-29T03:45:57;10.60;99.90
3690;DHT22;1861;50.240;8.596;2022-12-29T03:48:25;10.60;99.90
3690;DHT22;1861;50.240;8.596;2022-12-29T03:50:56;10.60;99.90
3690;DHT22;1861;50.240;8.596;2022-12-29T03:53:24;10.60;99.90
3690;DHT22;1861;50.240;8.596;2022-12-29T03:55:52;10.60;99.90
3690;DHT22;1861;50.240;8.596;2022-12-29T03:58:21;10.60;99.90
3690;DHT22;1861;50.240;8.596;2022-12-29T04:01:01;10.60;99.90
3690;DHT22;1861;50.240;8.596;2022-12-29T04:03:32;10.60;99.90
3690;DHT22;1861;50.240;8.596;2022-12-29T04:06:02;10.60;99.90
3690;DHT22;1861;50.240;8.596;2022-12-29T04:08:37;10.60;99.90
3690;DHT22;1861;50.240;8.596;2022-12-29T04:11:06;10.60;99.90
3690;DHT22;1861;50.240;8.596;2022-12-29T04:13:34;10.60;99.90
3690;DHT22;1861;50.240;8.596;2022-12-29T04:16:02;10.60;99.90
3690;DHT22;1861;50.240;8.596;2022-12-29T04:18:32;10.60;99.90
3690;DHT22;1861;50.240;8.596;2022-12-29T04:21:01;10.60;99.90
3690;DHT22;1861;50.240;8.596;2022-12-29T04:23:34;10.60;99.90
3690;DHT22;1861;50.240;8.596;2022-12-29T04:26:07;10.60;99.90
3690;DHT22;1861;50.240;8.596;2022-12-29T04:28:47;10.60;99.90
3690;DHT22;1861;50.240;8.596;2022-12-29T04:31:33;10.60;99.90
3690;DHT22;1861;50.240;8.596;2022-12-29T04:34:01;10.60;99.90
3690;DHT22;1861;50.240;8.596;2022-12-29T04:36:31;10.60;99.90
3690;DHT22;1861;50.240;8.596;2022-12-29T04:39:00;10.60;99.90
3690;DHT22;1861;50.240;8.596;2022-12-29T04:41:28;10.70;99.90
3690;DHT22;1861;50.240;8.596;2022-12-29T04:43:56;10.60;99.90
3690;DHT22;1861;50.240;8.596;2022-12-29T04:46:50;10.60;99.90
3690;DHT22;1861;50.240;8.596;2022-12-29T04:49:34;10.60;99.90
3690;DHT22;1861;50.240;8.596;2022-12-29T04:52:29;10.60;99.90
3690;DHT22;1861;50.240;8.596;2022-12-29T04:54:58;10.60;99.90
3690;DHT22;1861;50.240;8.596;2022-12-29T04:57:26;10.70;99.90
3690;DHT22;1861;50.240;8.596;2022-12-29T04:59:57;10.60;99.90
3690;DHT22;1861;50.240;8.596;2022-12-29T05:02:26;10.60;99.90
3690;DHT22;1861;50.240;8.596;2022-12-29T05:04:55;10.60;99.90
3690;DHT22;1861;50.240;8.596;2022-12-29T05:07:24;10.60;99.90
3690;DHT22;1861;50.240;8.596;2022-12-29T05:09:55;10.60;99.90
3690;DHT22;1861;50.240;8.596;2022-12-29T05:12:24;10.70;99.90
3690;DHT22;1861;50.240;8.596;2022-12-29T05:14:58;10.60;99.90
3690;DHT22;1861;50.240;8.596;2022-12-29T05:17:26;10.60;99.90
3690;DHT22;1861;50.240;8.596;2022-12-29T05:19:55;10.60;99.90
3690;DHT22;1861;50.240;8.596;2022-12-29T05:22:24;10.60;99.90
3690;DHT22;1861;50.240;8.596;2022-12-29T05:24:55;10.60;99.90
3690;DHT22;1861;50.240;8.596;2022-12-29T05:27:23;10.60;99.90
3690;DHT22;1861;50.240;8.596;2022-12-29T05:30:00;10.60;99.90
3690;DHT22;1861;50.240;8.596;2022-12-29T05:32:28;10.60;99.90
3690;DHT22;1861;50.240;8.596;2022-12-29T05:34:56;10.60;99.90
3690;DHT22;1861;50.240;8.596;2022-12-29T05:37:24;10.60;99.90
3690;DHT22;1861;50.240;8.596;2022-12-29T05:39:52;10.60;99.90
3690;DHT22;1861;50.240;8.596;2022-12-29T05:42:22;10.60;99.90
3690;DHT22;1861;50.240;8.596;2022-12-29T05:45:05;10.60;99.90
3690;DHT22;1861;50.240;8.596;2022-12-29T05:47:53;10.60;99.90
3690;DHT22;1861;50.240;8.596;2022-12-29T05:50:39;10.60;99.90
3690;DHT22;1861;50.240;8.596;2022-12-29T05:53:11;10.60;99.90
3690;DHT22;1861;50.240;8.596;2022-12-29T05:55:41;10.60;99.90
3690;DHT22;1861;50.240;8.596;2022-12-29T05:58:17;10.60;99.90
3690;DHT22;1861;50.240;8.596;2022-12-29T06:00:46;10.60;99.90
3690;DHT22;1861;50.240;8.596;2022-12-29T06:03:14;10.60;99.90
3690;DHT22;1861;50.240;8.596;2022-12-29T06:05:44;10.50;99.90
3690;DHT22;1861;50.240;8.596;2022-12-29T06:08:14;10.60;99.90
3690;DHT22;1861;50.240;8.596;2022-12-29T06:10:42;10.60;99.90
3690;DHT22;1861;50.240;8.596;2022-12-29T06:13:10;10.60;99.90
3690;DHT22;1861;50.240;8.596;2022-12-29T06:15:43;10.60;99.90
3690;DHT22;1861;50.240;8.596;2022-12-29T06:18:11;10.60;99.90
3690;DHT22;1861;50.240;8.596;2022-12-29T06:20:46;10.60;99.90
3690;DHT22;1861;50.240;8.596;2022-12-29T06:23:17;10.60;99.90
3690;DHT22;1861;50.240;8.596;2022-12-29T06:25:47;10.60;99.90
3690;DHT22;1861;50.240;8.596;2022-12-29T06:28:16;10.60;99.90
3690;DHT22;1861;50.240;8.596;2022-12-29T06:30:46;10.60;99.90
3690;DHT22;1861;50.240;8.596;2022-12-29T06:33:16;10.50;99.90
3690;DHT22;1861;50.240;8.596;2022-12-29T06:35:44;10.50;99.90
3690;DHT22;1861;50.240;8.596;2022-12-29T06:38:14;10.50;99.90
3690;DHT22;1861;50.240;8.596;2022-12-29T06:40:42;10.60;99.90
3690;DHT22;1861;50.240;8.596;2022-12-29T06:43:40;10.60;99.90
3690;DHT22;1861;50.240;8.596;2022-12-29T06:46:36;10.60;99.90
3690;DHT22;1861;50.240;8.596;2022-12-29T06:49:04;10.50;99.90
3690;DHT22;1861;50.240;8.596;2022-12-29T06:51:32;10.60;99.90
3690;DHT22;1861;50.240;8.596;2022-12-29T06:54:00;10.60;99.90
3690;DHT22;1861;50.240;8.596;2022-12-29T06:56:28;10.60;99.90
3690;DHT22;1861;50.240;8.596;2022-12-29T06:58:56;10.60;99.90
3690;DHT22;1861;50.240;8.596;2022-12-29T07:01:26;10.60;99.90
3690;DHT22;1861;50.240;8.596;2022-12-29T07:03:56;10.60;99.90
3690;DHT22;1861;50.240;8.596;2022-12-29T07:06:25;10.60;99.90
3690;DHT22;1861;50.240;8.596;2022-12-29T07:08:53;10.60;99.90
3690;DHT22;1861;50.240;8.596;2022-12-29T07:11:22;10.60;99.90
3690;DHT22;1861;50.240;8.596;2022-12-29T07:13:50;10.50;99.90
3690;DHT22;1861;50.240;8.596;2022-12-29T07:16:18;10.60;99.90
3690;DHT22;1861;50.240;8.596;2022-12-29T07:18:46;10.60;99.90
3690;DHT22;1861;50.240;8.596;2022-12-29T07:21:16;10.60;99.90
3690;DHT22;1861;50.240;8.596;2022-12-29T07:23:44;10.60;99.90
3690;DHT22;1861;50.240;8.596;2022-12-29T07:26:13;10.60;99.90
3690;DHT22;1861;50.240;8.596;2022-12-29T07:28:44;10.70;99.90
3690;DHT22;1861;50.240;8.596;2022-12-29T07:31:14;10.60;99.90
3690;DHT22;1861;50.240;8.596;2022-12-29T07:33:43;10.70;99.90
3690;DHT22;1861;50.240;8.596;2022-12-29T07:36:12;10.70;99.90
3690;DHT22;1861;50.240;8.596;2022-12-29T07:38:42;10.70;99.90
3690;DHT22;1861;50.240;8.596;2022-12-29T07:41:10;10.70;99.90
3690;DHT22;1861;50.240;8.596;2022-12-29T07:43:38;10.70;99.90
3690;DHT22;1861;50.240;8.596;2022-12-29T07:46:30;10.70;99.90
3690;DHT22;1861;50.240;8.596;2022-12-29T07:49:18;10.70;99.90
3690;DHT22;1861;50.240;8.596;2022-12-29T07:51:46;10.70;99.90
3690;DHT22;1861;50.240;8.596;2022-12-29T07:54:16;10.70;99.90
3690;DHT22;1861;50.240;8.596;2022-12-29T07:56:45;10.70;99.90
3690;DHT22;1861;50.240;8.596;2022-12-29T07:59:13;10.70;99.90
3690;DHT22;1861;50.240;8.596;2022-12-29T08:01:41;10.70;99.90
3690;DHT22;1861;50.240;8.596;2022-12-29T08:04:09;10.70;99.90
3690;DHT22;1861;50.240;8.596;2022-12-29T08:06:38;10.80;99.90
3690;DHT22;1861;50.240;8.596;2022-12-29T08:09:07;10.80;99.90
3690;DHT22;1861;50.240;8.596;2022-12-29T08:11:46;10.80;99.90
3690;DHT22;1861;50.240;8.596;2022-12-29T08:14:15;10.80;99.90
3690;DHT22;1861;50.240;8.596;2022-12-29T08:16:43;10.80;99.90
3690;DHT22;1861;50.240;8.596;2022-12-29T08:19:11;10.90;99.90
3690;DHT22;1861;50.240;8.596;2022-12-29T08:21:39;10.90;99.90
3690;DHT22;1861;50.240;8.596;2022-12-29T08:24:08;10.90;99.90
3690;DHT22;1861;50.240;8.596;2022-12-29T08:26:36;10.90;99.90
3690;DHT22;1861;50.240;8.596;2022-12-29T08:29:06;10.90;99.90
3690;DHT22;1861;50.240;8.596;2022-12-29T08:31:34;10.90;99.90
3690;DHT22;1861;50.240;8.596;2022-12-29T08:34:03;10.90;99.90
3690;DHT22;1861;50.240;8.596;2022-12-29T08:36:31;11.00;99.90
3690;DHT22;1861;50.240;8.596;2022-12-29T08:38:59;11.00;99.90
3690;DHT22;1861;50.240;8.596;2022-12-29T08:41:27;11.00;99.90
3690;DHT22;1861;50.240;8.596;2022-12-29T08:43:55;11.00;99.90
3690;DHT22;1861;50.240;8.596;2022-12-29T08:46:25;11.10;99.90
3690;DHT22;1861;50.240;8.596;2022-12-29T08:48:53;11.10;99.90
3690;DHT22;1861;50.240;8.596;2022-12-29T08:51:21;11.20;99.90
3690;DHT22;1861;50.240;8.596;2022-12-29T08:53:51;11.20;99.90
3690;DHT22;1861;50.240;8.596;2022-12-29T08:56:20;11.20;99.90
3690;DHT22;1861;50.240;8.596;2022-12-29T08:58:53;11.30;99.90
3690;DHT22;1861;50.240;8.596;2022-12-29T09:01:22;11.20;99.90
3690;DHT22;1861;50.240;8.596;2022-12-29T09:03:53;11.20;99.90
3690;DHT22;1861;50.240;8.596;2022-12-29T09:06:41;11.30;99.90
3690;DHT22;1861;50.240;8.596;2022-12-29T09:09:09;11.20;99.90
3690;DHT22;1861;50.240;8.596;2022-12-29T09:11:38;11.30;99.90
3690;DHT22;1861;50.240;8.596;2022-12-29T09:14:06;11.30;99.90
3690;DHT22;1861;50.240;8.596;2022-12-29T09:16:36;11.30;99.90
3690;DHT22;1861;50.240;8.596;2022-12-29T09:19:06;11.20;99.90
3690;DHT22;1861;50.240;8.596;2022-12-29T09:21:34;11.20;99.90
3690;DHT22;1861;50.240;8.596;2022-12-29T09:24:02;11.30;99.90
3690;DHT22;1861;50.240;8.596;2022-12-29T09:26:30;11.20;99.90
3690;DHT22;1861;50.240;8.596;2022-12-29T09:28:58;11.20;99.90
3690;DHT22;1861;50.240;8.596;2022-12-29T09:31:26;11.20;99.90
3690;DHT22;1861;50.240;8.596;2022-12-29T09:33:55;11.20;99.90
3690;DHT22;1861;50.240;8.596;2022-12-29T09:36:24;11.20;99.90
3690;DHT22;1861;50.240;8.596;2022-12-29T09:38:53;11.20;99.90
3690;DHT22;1861;50.240;8.596;2022-12-29T09:41:26;11.30;99.90
3690;DHT22;1861;50.240;8.596;2022-12-29T09:44:07;11.30;99.90
3690;DHT22;1861;50.240;8.596;2022-12-29T09:46:40;11.30;99.90
3690;DHT22;1861;50.240;8.596;2022-12-29T09:49:19;11.30;99.90
3690;DHT22;1861;50.240;8.596;2022-12-29T09:51:53;11.20;99.90
3690;DHT22;1861;50.240;8.596;2022-12-29T09:54:35;11.20;99.90
3690;DHT22;1861;50.240;8.596;2022-12-29T09:57:13;11.20;99.90
3690;DHT22;1861;50.240;8.596;2022-12-29T09:59:44;11.20;99.90
3690;DHT22;1861;50.240;8.596;2022-12-29T10:02:23;11.30;99.90
3690;DHT22;1861;50.240;8.596;2022-12-29T10:04:54;11.20;99.90
3690;DHT22;1861;50.240;8.596;2022-12-29T10:07:34;11.20;99.90
3690;DHT22;1861;50.240;8.596;2022-12-29T10:10:14;11.20;99.90
3690;DHT22;1861;50.240;8.596;2022-12-29T10:12:58;11.20;99.90
3690;DHT22;1861;50.240;8.596;2022-12-29T10:15:40;11.20;99.90
3690;DHT22;1861;50.240;8.596;2022-12-29T10:18:27;11.20;99.90
3690;DHT22;1861;50.240;8.596;2022-12-29T10:21:05;11.20;99.90
3690;DHT22;1861;50.240;8.596;2022-12-29T10:23:41;11.20;99.90
3690;DHT22;1861;50.240;8.596;2022-12-29T10:26:13;11.20;99.90
3690;DHT22;1861;50.240;8.596;2022-12-29T10:28:43;11.20;99.90
3690;DHT22;1861;50.240;8.596;2022-12-29T10:31:16;11.20;99.90
3690;DHT22;1861;50.240;8.596;2022-12-29T10:33:49;11.10;99.90
3690;DHT22;1861;50.240;8.596;2022-12-29T10:36:24;11.20;99.90
3690;DHT22;1861;50.240;8.596;2022-12-29T10:39:04;11.10;99.90
3690;DHT22;1861;50.240;8.596;2022-12-29T10:41:39;11.20;99.90
3690;DHT22;1861;50.240;8.596;2022-12-29T10:44:13;11.20;99.90
3690;DHT22;1861;50.240;8.596;2022-12-29T10:46:43;11.20;99.90
3690;DHT22;1861;50.240;8.596;2022-12-29T10:49:16;11.20;99.90
3690;DHT22;1861;50.240;8.596;2022-12-29T10:51:48;11.20;99.90
3690;DHT22;1861;50.240;8.596;2022-12-29T10:54:22;11.20;99.90
3690;DHT22;1861;50.240;8.596;2022-12-29T10:56:53;11.20;99.90
3690;DHT22;1861;50.240;8.596;2022-12-29T10:59:24;11.20;99.90
3690;DHT22;1861;50.240;8.596;2022-12-29T11:01:59;11.30;99.90
3690;DHT22;1861;50.240;8.596;2022-12-29T11:04:41;11.20;99.90
3690;DHT22;1861;50.240;8.596;2022-12-29T11:07:12;11.30;99.90
3690;DHT22;1861;50.240;8.596;2022-12-29T11:09:45;11.20;99.90
3690;DHT22;1861;50.240;8.596;2022-12-29T11:12:23;11.20;99.90
3690;DHT22;1861;50.240;8.596;2022-12-29T11:15:06;11.20;99.90
3690;DHT22;1861;50.240;8.596;2022-12-29T11:17:44;11.20;99.90
3690;DHT22;1861;50.240;8.596;2022-12-29T11:20:31;11.20;99.90
3690;DHT22;1861;50.240;8.596;2022-12-29T11:23:00;11.20;99.90
3690;DHT22;1861;50.240;8.596;2022-12-29T11:25:30;11.30;99.90
3690;DHT22;1861;50.240;8.596;2022-12-29T11:28:01;11.30;99.90
3690;DHT22;1861;50.240;8.596;2022-12-29T11:30:31;11.30;99.90
3690;DHT22;1861;50.240;8.596;2022-12-29T11:33:03;11.30;99.90
3690;DHT22;1861;50.240;8.596;2022-12-29T11:35:34;11.30;99.90
3690;DHT22;1861;50.240;8.596;2022-12-29T11:38:12;11.30;99.90
3690;DHT22;1861;50.240;8.596;2022-12-29T11:40:48;11.30;99.90
3690;DHT22;1861;50.240;8.596;2022-12-29T11:43:21;11.30;99.90
3690;DHT22;1861;50.240;8.596;2022-12-29T11:45:52;11.30;99.90
3690;DHT22;1861;50.240;8.596;2022-12-29T11:48:21;11.30;99.90
3690;DHT22;1861;50.240;8.596;2022-12-29T11:50:51;11.40;99.90
3690;DHT22;1861;50.240;8.596;2022-12-29T11:53:22;11.40;99.90
3690;DHT22;1861;50.240;8.596;2022-12-29T11:55:55;11.40;99.90
3690;DHT22;1861;50.240;8.596;2022-12-29T11:58:28;11.40;99.90
3690;DHT22;1861;50.240;8.596;2022-12-29T12:01:01;11.40;99.90
3690;DHT22;1861;50.240;8.596;2022-12-29T12:03:34;11.40;99.90
3690;DHT22;1861;50.240;8.596;2022-12-29T12:06:04;11.40;99.90
3690;DHT22;1861;50.240;8.596;2022-12-29T12:08:37;11.30;99.90
3690;DHT22;1861;50.240;8.596;2022-12-29T12:11:10;11.40;99.90
3690;DHT22;1861;50.240;8.596;2022-12-29T12:13:43;11.30;99.90
3690;DHT22;1861;50.240;8.596;2022-12-29T12:16:18;11.40;99.90
3690;DHT22;1861;50.240;8.596;2022-12-29T12:18:53;11.40;99.90
3690;DHT22;1861;50.240;8.596;2022-12-29T12:21:29;11.40;99.90
3690;DHT22;1861;50.240;8.596;2022-12-29T12:24:19;11.40;99.90
3690;DHT22;1861;50.240;8.596;2022-12-29T12:26:59;11.30;99.90
3690;DHT22;1861;50.240;8.596;2022-12-29T12:29:36;11.30;99.90
3690;DHT22;1861;50.240;8.596;2022-12-29T12:32:11;11.40;99.90
3690;DHT22;1861;50.240;8.596;2022-12-29T12:34:43;11.40;99.90
3690;DHT22;1861;50.240;8.596;2022-12-29T12:37:41;11.30;99.90
3690;DHT22;1861;50.240;8.596;2022-12-29T12:40:32;11.30;99.90
3690;DHT22;1861;50.240;8.596;2022-12-29T12:43:25;11.30;99.90
3690;DHT22;1861;50.240;8.596;2022-12-29T12:46:08;11.30;99.90
3690;DHT22;1861;50.240;8.596;2022-12-29T12:49:03;11.30;99.90
3690;DHT22;1861;50.240;8.596;2022-12-29T12:51:44;11.40;99.90
3690;DHT22;1861;50.240;8.596;2022-12-29T12:54:31;11.40;99.90
3690;DHT22;1861;50.240;8.596;2022-12-29T12:57:11;11.40;99.90
3690;DHT22;1861;50.240;8.596;2022-12-29T12:59:55;11.40;99.90
3690;DHT22;1861;50.240;8.596;2022-12-29T13:02:37;11.40;99.90
3690;DHT22;1861;50.240;8.596;2022-12-29T13:08:30;11.50;99.90
3690;DHT22;1861;50.240;8.596;2022-12-29T13:11:11;11.50;99.90
3690;DHT22;1861;50.240;8.596;2022-12-29T13:13:53;11.50;99.90
3690;DHT22;1861;50.240;8.596;2022-12-29T13:16:31;11.60;99.90
3690;DHT22;1861;50.240;8.596;2022-12-29T13:19:08;11.60;99.90
3690;DHT22;1861;50.240;8.596;2022-12-29T13:21:51;11.60;99.90
3690;DHT22;1861;50.240;8.596;2022-12-29T13:24:40;11.50;99.90
3690;DHT22;1861;50.240;8.596;2022-12-29T13:27:18;11.50;99.90
3690;DHT22;1861;50.240;8.596;2022-12-29T13:29:56;11.50;99.90
3690;DHT22;1861;50.240;8.596;2022-12-29T13:32:41;11.50;99.90
3690;DHT22;1861;50.240;8.596;2022-12-29T13:35:27;11.50;99.90
3690;DHT22;1861;50.240;8.596;2022-12-29T13:38:01;11.50;99.90
3690;DHT22;1861;50.240;8.596;2022-12-29T13:40:36;11.50;99.90
3690;DHT22;1861;50.240;8.596;2022-12-29T13:43:08;11.50;99.90
3690;DHT22;1861;50.240;8.596;2022-12-29T13:45:39;11.50;99.90
3690;DHT22;1861;50.240;8.596;2022-12-29T13:48:17;11.50;99.90
3690;DHT22;1861;50.240;8.596;2022-12-29T13:50:52;11.50;99.90
3690;DHT22;1861;50.240;8.596;2022-12-29T13:53:30;11.50;99.90
3690;DHT22;1861;50.240;8.596;2022-12-29T13:56:07;11.50;99.90
3690;DHT22;1861;50.240;8.596;2022-12-29T13:58:44;11.50;99.90
3690;DHT22;1861;50.240;8.596;2022-12-29T14:01:18;11.50;99.90
3690;DHT22;1861;50.240;8.596;2022-12-29T14:03:52;11.50;99.90
3690;DHT22;1861;50.240;8.596;2022-12-29T14:06:23;11.50;99.90
3690;DHT22;1861;50.240;8.596;2022-12-29T14:08:54;11.50;99.90
3690;DHT22;1861;50.240;8.596;2022-12-29T14:11:30;11.40;99.90
3690;DHT22;1861;50.240;8.596;2022-12-29T14:13:59;11.50;99.90
3690;DHT22;1861;50.240;8.596;2022-12-29T14:16:32;11.50;99.90
3690;DHT22;1861;50.240;8.596;2022-12-29T14:19:11;11.50;99.90
3690;DHT22;1861;50.240;8.596;2022-12-29T14:21:40;11.50;99.90
3690;DHT22;1861;50.240;8.596;2022-12-29T14:24:43;11.60;99.90
3690;DHT22;1861;50.240;8.596;2022-12-29T14:27:43;11.50;99.90
3690;DHT22;1861;50.240;8.596;2022-12-29T14:30:50;11.50;99.90
3690;DHT22;1861;50.240;8.596;2022-12-29T14:33:20;11.50;99.90
3690;DHT22;1861;50.240;8.596;2022-12-29T14:35:50;11.60;99.90
3690;DHT22;1861;50.240;8.596;2022-12-29T14:38:24;11.50;99.90
3690;DHT22;1861;50.240;8.596;2022-12-29T14:40:52;11.50;99.90
3690;DHT22;1861;50.240;8.596;2022-12-29T14:43:38;11.50;99.90
3690;DHT22;1861;50.240;8.596;2022-12-29T14:46:08;11.50;99.90
3690;DHT22;1861;50.240;8.596;2022-12-29T14:48:39;11.50;99.90
3690;DHT22;1861;50.240;8.596;2022-12-29T14:51:30;11.50;99.90
3690;DHT22;1861;50.240;8.596;2022-12-29T14:53:59;11.50;99.90
3690;DHT22;1861;50.240;8.596;2022-12-29T14:56:28;11.50;99.90
3690;DHT22;1861;50.240;8.596;2022-12-29T14:59:01;11.50;99.90
3690;DHT22;1861;50.240;8.596;2022-12-29T15:01:39;11.50;99.90
3690;DHT22;1861;50.240;8.596;2022-12-29T15:04:17;11.50;99.90
3690;DHT22;1861;50.240;8.596;2022-12-29T15:06:49;11.50;99.90
3690;DHT22;1861;50.240;8.596;2022-12-29T15:09:24;11.50;99.90
3690;DHT22;1861;50.240;8.596;2022-12-29T15:11:57;11.50;99.90
3690;DHT22;1861;50.240;8.596;2022-12-29T15:14:33;11.50;99.90
3690;DHT22;1861;50.240;8.596;2022-12-29T15:17:09;11.40;99.90
3690;DHT22;1861;50.240;8.596;2022-12-29T15:19:38;11.50;99.90
3690;DHT22;1861;50.240;8.596;2022-12-29T15:22:09;11.40;99.90
3690;DHT22;1861;50.240;8.596;2022-12-29T15:24:41;11.50;99.90
3690;DHT22;1861;50.240;8.596;2022-12-29T15:27:13;11.40;99.90
3690;DHT22;1861;50.240;8.596;2022-12-29T15:29:43;11.40;99.90
3690;DHT22;1861;50.240;8.596;2022-12-29T15:32:20;11.40;99.90
3690;DHT22;1861;50.240;8.596;2022-12-29T15:34:51;11.30;99.90
3690;DHT22;1861;50.240;8.596;2022-12-29T15:37:22;11.40;99.90
3690;DHT22;1861;50.240;8.596;2022-12-29T15:39:52;11.30;99.90
3690;DHT22;1861;50.240;8.596;2022-12-29T15:42:36;11.30;99.90
3690;DHT22;1861;50.240;8.596;2022-12-29T15:45:11;11.30;99.90
3690;DHT22;1861;50.240;8.596;2022-12-29T15:47:41;11.30;99.90
3690;DHT22;1861;50.240;8.596;2022-12-29T15:50:17;11.30;99.90
3690;DHT22;1861;50.240;8.596;2022-12-29T15:52:49;11.30;99.90
3690;DHT22;1861;50.240;8.596;2022-12-29T15:55:21;11.30;99.90
3690;DHT22;1861;50.240;8.596;2022-12-29T15:57:55;11.30;99.90
3690;DHT22;1861;50.240;8.596;2022-12-29T16:00:25;11.30;99.90
3690;DHT22;1861;50.240;8.596;2022-12-29T16:02:55;11.30;99.90
3690;DHT22;1861;50.240;8.596;2022-12-29T16:05:31;11.30;99.90
3690;DHT22;1861;50.240;8.596;2022-12-29T16:08:01;11.30;99.90
3690;DHT22;1861;50.240;8.596;2022-12-29T16:10:35;11.30;99.90
3690;DHT22;1861;50.240;8.596;2022-12-29T16:13:06;11.30;99.90
3690;DHT22;1861;50.240;8.596;2022-12-29T16:15:41;11.30;99.90
3690;DHT22;1861;50.240;8.596;2022-12-29T16:18:21;11.30;99.90
3690;DHT22;1861;50.240;8.596;2022-12-29T16:20:51;11.20;99.90
3690;DHT22;1861;50.240;8.596;2022-12-29T16:23:23;11.20;99.90
3690;DHT22;1861;50.240;8.596;2022-12-29T16:25:53;11.20;99.90
3690;DHT22;1861;50.240;8.596;2022-12-29T16:28:24;11.20;99.90
3690;DHT22;1861;50.240;8.596;2022-12-29T16:31:02;11.10;99.90
3690;DHT22;1861;50.240;8.596;2022-12-29T16:33:39;11.00;99.90
3690;DHT22;1861;50.240;8.596;2022-12-29T16:36:26;11.00;99.90
3690;DHT22;1861;50.240;8.596;2022-12-29T16:39:36;11.00;99.90
3690;DHT22;1861;50.240;8.596;2022-12-29T16:42:34;11.00;99.90
3690;DHT22;1861;50.240;8.596;2022-12-29T16:48:17;10.90;99.90
3690;DHT22;1861;50.240;8.596;2022-12-29T16:50:49;10.90;99.90
3690;DHT22;1861;50.240;8.596;2022-12-29T16:53:21;10.90;99.90
3690;DHT22;1861;50.240;8.596;2022-12-29T16:55:55;10.90;99.90